sensor_id;sensor_type;location;lat;lon;timestamp;temperature;humidity
23703;DHT22;12030;50.376;8.762;2022-11-30T00:00:53;7.40;99.90
23703;DHT22;12030;50.376;8.762;2022-11-30T00:03:18;7.40;99.90
23703;DHT22;12030;50.376;8.762;2022-11-30T00:05:44;7.40;99.90
23703;DHT22;12030;50.376;8.762;2022-11-30T00:08:10;7.40;99.90
23703;DHT22;12030;50.376;8.762;2022-11-30T00:10:37;7.40;99.90
23703;DHT22;12030;50.376;8.762;2022-11-30T00:13:03;7.40;99.90
23703;DHT22;12030;50.376;8.762;2022-11-30T00:15:28;7.50;99.90
23703;DHT22;12030;50.376;8.762;2022-11-30T00:17:57;7.40;99.90
23703;DHT22;12030;50.376;8.762;2022-11-30T00:20:24;7.40;99.90
23703;DHT22;12030;50.376;8.762;2022-11-30T00:22:49;7.40;99.90
23703;DHT22;12030;50.376;8.762;2022-11-30T00:25:15;7.40;99.90
23703;DHT22;12030;50.376;8.762;2022-11-30T00:27:40;7.40;99.90
23703;DHT22;12030;50.376;8.762;2022-11-30T00:30:06;7.40;99.90
23703;DHT22;12030;50.376;8.762;2022-11-30T00:32:32;7.50;99.90
23703;DHT22;12030;50.376;8.762;2022-11-30T00:34:58;7.50;99.90
23703;DHT22;12030;50.376;8.762;2022-11-30T00:37:24;7.40;99.90
23703;DHT22;12030;50.376;8.762;2022-11-30T00:39:49;7.50;99.90
23703;DHT22;12030;50.376;8.762;2022-11-30T00:42:15;7.50;99.90
23703;DHT22;12030;50.376;8.762;2022-11-30T00:44:41;7.50;99.90
23703;DHT22;12030;50.376;8.762;2022-11-30T00:47:06;7.50;99.90
23703;DHT22;12030;50.376;8.762;2022-11-30T00:49:32;7.60;99.90
23703;DHT22;12030;50.376;8.762;2022-11-30T00:51:59;7.60;99.90
23703;DHT22;12030;50.376;8.762;2022-11-30T00:54:24;7.60;99.90
23703;DHT22;12030;50.376;8.762;2022-11-30T00:56:50;7.70;99.90
23703;DHT22;12030;50.376;8.762;2022-11-30T00:59:15;7.70;99.90
23703;DHT22;12030;50.376;8.762;2022-11-30T01:01:41;7.70;99.90
23703;DHT22;12030;50.376;8.762;2022-11-30T01:04:07;7.80;99.90
23703;DHT22;12030;50.376;8.762;2022-11-30T01:06:32;7.80;99.90
23703;DHT22;12030;50.376;8.762;2022-11-30T01:08:58;7.80;99.90
23703;DHT22;12030;50.376;8.762;2022-11-30T01:11:27;7.80;99.90
23703;DHT22;12030;50.376;8.762;2022-11-30T01:13:54;7.80;99.90
23703;DHT22;12030;50.376;8.762;2022-11-30T01:16:23;7.70;99.90
23703;DHT22;12030;50.376;8.762;2022-11-30T01:18:50;7.70;99.90
23703;DHT22;12030;50.376;8.762;2022-11-30T01:21:18;7.80;99.90
23703;DHT22;12030;50.376;8.762;2022-11-30T01:23:45;7.70;99.90
23703;DHT22;12030;50.376;8.762;2022-11-30T01:26:11;7.70;99.90
23703;DHT22;12030;50.376;8.762;2022-11-30T01:28:37;7.80;99.90
23703;DHT22;12030;50.376;8.762;2022-11-30T01:31:05;7.80;99.90
23703;DHT22;12030;50.376;8.762;2022-11-30T01:33:31;7.80;99.90
23703;DHT22;12030;50.376;8.762;2022-11-30T01:36:06;7.80;99.90
23703;DHT22;12030;50.376;8.762;2022-11-30T01:38:34;7.80;99.90
23703;DHT22;12030;50.376;8.762;2022-11-30T01:41:01;7.80;99.90
23703;DHT22;12030;50.376;8.762;2022-11-30T01:43:47;7.80;99.90
23703;DHT22;12030;50.376;8.762;2022-11-30T01:49:24;7.80;99.90
23703;DHT22;12030;50.376;8.762;2022-11-30T01:51:54;7.70;99.90
23703;DHT22;12030;50.376;8.762;2022-11-30T01:54:31;7.70;99.90
23703;DHT22;12030;50.376;8.762;2022-11-30T01:57:24;7.70;99.90
23703;DHT22;12030;50.376;8.762;2022-11-30T01:59:51;7.70;99.90
23703;DHT22;12030;50.376;8.762;2022-11-30T02:02:19;7.70;99.90
23703;DHT22;12030;50.376;8.762;2022-11-30T02:04:49;7.60;99.90
23703;DHT22;12030;50.376;8.762;2022-11-30T02:07:14;7.70;99.90
23703;DHT22;12030;50.376;8.762;2022-11-30T02:09:44;7.60;99.90
23703;DHT22;12030;50.376;8.762;2022-11-30T02:12:31;7.60;99.90
23703;DHT22;12030;50.376;8.762;2022-11-30T02:15:04;7.60;99.90
23703;DHT22;12030;50.376;8.762;2022-11-30T02:20:18;7.70;99.90
23703;DHT22;12030;50.376;8.762;2022-11-30T02:25:45;7.70;99.90
23703;DHT22;12030;50.376;8.762;2022-11-30T02:31:20;7.80;99.90
23703;DHT22;12030;50.376;8.762;2022-11-30T02:33:48;7.80;99.90
23703;DHT22;12030;50.376;8.762;2022-11-30T02:36:15;7.90;99.90
23703;DHT22;12030;50.376;8.762;2022-11-30T02:38:41;7.80;99.90
23703;DHT22;12030;50.376;8.762;2022-11-30T02:41:06;7.80;99.90
23703;DHT22;12030;50.376;8.762;2022-11-30T02:43:33;7.80;99.90
23703;DHT22;12030;50.376;8.762;2022-11-30T02:46:15;7.80;99.90
23703;DHT22;12030;50.376;8.762;2022-11-30T02:48:48;7.80;99.90
23703;DHT22;12030;50.376;8.762;2022-11-30T02:51:20;7.80;99.90
23703;DHT22;12030;50.376;8.762;2022-11-30T02:53:47;7.90;99.90
23703;DHT22;12030;50.376;8.762;2022-11-30T02:56:13;7.90;99.90
23703;DHT22;12030;50.376;8.762;2022-11-30T02:58:39;7.80;99.90
23703;DHT22;12030;50.376;8.762;2022-11-30T03:01:05;7.90;99.90
23703;DHT22;12030;50.376;8.762;2022-11-30T03:03:30;7.80;99.90
23703;DHT22;12030;50.376;8.762;2022-11-30T03:05:56;7.90;99.90
23703;DHT22;12030;50.376;8.762;2022-11-30T03:08:22;7.90;99.90
23703;DHT22;12030;50.376;8.762;2022-11-30T03:10:47;7.80;99.90
23703;DHT22;12030;50.376;8.762;2022-11-30T03:13:13;7.90;99.90
23703;DHT22;12030;50.376;8.762;2022-11-30T03:15:38;7.90;99.90
23703;DHT22;12030;50.376;8.762;2022-11-30T03:18:04;7.90;99.90
23703;DHT22;12030;50.376;8.762;2022-11-30T03:20:30;7.90;99.90
23703;DHT22;12030;50.376;8.762;2022-11-30T03:22:59;7.90;99.90
23703;DHT22;12030;50.376;8.762;2022-11-30T03:25:25;7.80;99.90
23703;DHT22;12030;50.376;8.762;2022-11-30T03:27:51;7.90;99.90
23703;DHT22;12030;50.376;8.762;2022-11-30T03:30:17;7.90;99.90
23703;DHT22;12030;50.376;8.762;2022-11-30T03:32:42;8.00;99.90
23703;DHT22;12030;50.376;8.762;2022-11-30T03:35:08;7.90;99.90
23703;DHT22;12030;50.376;8.762;2022-11-30T03:37:34;7.90;99.90
23703;DHT22;12030;50.376;8.762;2022-11-30T03:39:59;8.00;99.90
23703;DHT22;12030;50.376;8.762;2022-11-30T03:42:25;8.00;99.90
23703;DHT22;12030;50.376;8.762;2022-11-30T03:44:50;8.00;99.90
23703;DHT22;12030;50.376;8.762;2022-11-30T03:47:16;8.00;99.90
23703;DHT22;12030;50.376;8.762;2022-11-30T03:49:41;8.00;99.90
23703;DHT22;12030;50.376;8.762;2022-11-30T03:52:07;8.00;99.90
23703;DHT22;12030;50.376;8.762;2022-11-30T03:54:32;8.00;99.90
23703;DHT22;12030;50.376;8.762;2022-11-30T03:56:58;7.90;99.90
23703;DHT22;12030;50.376;8.762;2022-11-30T03:59:24;7.90;99.90
23703;DHT22;12030;50.376;8.762;2022-11-30T04:01:49;8.00;99.90
23703;DHT22;12030;50.376;8.762;2022-11-30T04:04:15;8.00;99.90
23703;DHT22;12030;50.376;8.762;2022-11-30T04:06:40;8.00;99.90
23703;DHT22;12030;50.376;8.762;2022-11-30T04:09:06;8.00;99.90
23703;DHT22;12030;50.376;8.762;2022-11-30T04:11:31;8.00;99.90
23703;DHT22;12030;50.376;8.762;2022-11-30T04:13:57;8.00;99.90
23703;DHT22;12030;50.376;8.762;2022-11-30T04:16:22;8.00;99.90
23703;DHT22;12030;50.376;8.762;2022-11-30T04:18:48;8.00;99.90
23703;DHT22;12030;50.376;8.762;2022-11-30T04:21:14;8.00;99.90
23703;DHT22;12030;50.376;8.762;2022-11-30T04:23:39;8.00;99.90
23703;DHT22;12030;50.376;8.762;2022-11-30T04:26:07;7.90;99.90
23703;DHT22;12030;50.376;8.762;2022-11-30T04:28:33;8.00;99.90
23703;DHT22;12030;50.376;8.762;2022-11-30T04:30:59;8.00;99.90
23703;DHT22;12030;50.376;8.762;2022-11-30T04:33:25;8.00;99.90
23703;DHT22;12030;50.376;8.762;2022-11-30T04:35:55;8.00;99.90
23703;DHT22;12030;50.376;8.762;2022-11-30T04:38:21;8.00;99.90
23703;DHT22;12030;50.376;8.762;2022-11-30T04:40:47;8.00;99.90
23703;DHT22;12030;50.376;8.762;2022-11-30T04:43:13;8.00;99.90
23703;DHT22;12030;50.376;8.762;2022-11-30T04:45:39;8.00;99.90
23703;DHT22;12030;50.376;8.762;2022-11-30T04:48:06;8.00;99.90
23703;DHT22;12030;50.376;8.762;2022-11-30T04:50:32;8.00;99.90
23703;DHT22;12030;50.376;8.762;2022-11-30T04:52:58;8.00;99.90
23703;DHT22;12030;50.376;8.762;2022-11-30T04:55:24;7.90;99.90
23703;DHT22;12030;50.376;8.762;2022-11-30T04:57:50;7.90;99.90
23703;DHT22;12030;50.376;8.762;2022-11-30T05:00:16;7.90;99.90
23703;DHT22;12030;50.376;8.762;2022-11-30T05:02:42;7.90;99.90
23703;DHT22;12030;50.376;8.762;2022-11-30T05:05:09;7.90;99.90
23703;DHT22;12030;50.376;8.762;2022-11-30T05:07:35;7.90;99.90
23703;DHT22;12030;50.376;8.762;2022-11-30T05:10:00;7.90;99.90
23703;DHT22;12030;50.376;8.762;2022-11-30T05:12:26;7.90;99.90
23703;DHT22;12030;50.376;8.762;2022-11-30T05:14:51;8.00;99.90
23703;DHT22;12030;50.376;8.762;2022-11-30T05:17:17;8.00;99.90
23703;DHT22;12030;50.376;8.762;2022-11-30T05:19:42;8.00;99.90
23703;DHT22;12030;50.376;8.762;2022-11-30T05:22:08;8.00;99.90
23703;DHT22;12030;50.376;8.762;2022-11-30T05:24:34;8.00;99.90
23703;DHT22;12030;50.376;8.762;2022-11-30T05:26:59;8.00;99.90
23703;DHT22;12030;50.376;8.762;2022-11-30T05:29:25;7.90;99.90
23703;DHT22;12030;50.376;8.762;2022-11-30T05:31:50;7.90;99.90
23703;DHT22;12030;50.376;8.762;2022-11-30T05:34:16;7.90;99.90
23703;DHT22;12030;50.376;8.762;2022-11-30T05:36:41;7.90;99.90
23703;DHT22;12030;50.376;8.762;2022-11-30T05:39:07;7.90;99.90
23703;DHT22;12030;50.376;8.762;2022-11-30T05:41:32;7.90;99.90
23703;DHT22;12030;50.376;8.762;2022-11-30T05:43:58;7.90;99.90
23703;DHT22;12030;50.376;8.762;2022-11-30T05:46:24;7.90;99.90
23703;DHT22;12030;50.376;8.762;2022-11-30T05:48:49;7.90;99.90
23703;DHT22;12030;50.376;8.762;2022-11-30T05:51:16;7.90;99.90
23703;DHT22;12030;50.376;8.762;2022-11-30T05:53:43;7.80;99.90
23703;DHT22;12030;50.376;8.762;2022-11-30T05:56:15;7.90;99.90
23703;DHT22;12030;50.376;8.762;2022-11-30T05:58:41;7.90;99.90
23703;DHT22;12030;50.376;8.762;2022-11-30T06:01:07;7.90;99.90
23703;DHT22;12030;50.376;8.762;2022-11-30T06:03:34;7.90;99.90
23703;DHT22;12030;50.376;8.762;2022-11-30T06:06:00;8.00;99.90
23703;DHT22;12030;50.376;8.762;2022-11-30T06:08:26;8.00;99.90
23703;DHT22;12030;50.376;8.762;2022-11-30T06:10:51;7.90;99.90
23703;DHT22;12030;50.376;8.762;2022-11-30T06:13:18;7.90;99.90
23703;DHT22;12030;50.376;8.762;2022-11-30T06:15:43;8.00;99.90
23703;DHT22;12030;50.376;8.762;2022-11-30T06:18:11;8.00;99.90
23703;DHT22;12030;50.376;8.762;2022-11-30T06:20:37;8.00;99.90
23703;DHT22;12030;50.376;8.762;2022-11-30T06:23:03;8.00;99.90
23703;DHT22;12030;50.376;8.762;2022-11-30T06:25:28;8.10;99.90
23703;DHT22;12030;50.376;8.762;2022-11-30T06:27:54;8.10;99.90
23703;DHT22;12030;50.376;8.762;2022-11-30T06:30:19;8.30;99.90
23703;DHT22;12030;50.376;8.762;2022-11-30T06:32:49;8.30;99.90
23703;DHT22;12030;50.376;8.762;2022-11-30T06:35:16;8.40;99.90
23703;DHT22;12030;50.376;8.762;2022-11-30T06:37:42;8.30;99.90
23703;DHT22;12030;50.376;8.762;2022-11-30T06:40:10;8.30;99.90
23703;DHT22;12030;50.376;8.762;2022-11-30T06:42:36;8.30;99.90
23703;DHT22;12030;50.376;8.762;2022-11-30T06:45:03;8.30;99.90
23703;DHT22;12030;50.376;8.762;2022-11-30T06:47:29;8.30;99.90
23703;DHT22;12030;50.376;8.762;2022-11-30T06:49:54;8.30;99.90
23703;DHT22;12030;50.376;8.762;2022-11-30T06:52:20;8.30;99.90
23703;DHT22;12030;50.376;8.762;2022-11-30T06:54:46;8.40;99.90
23703;DHT22;12030;50.376;8.762;2022-11-30T06:57:11;8.40;99.90
23703;DHT22;12030;50.376;8.762;2022-11-30T06:59:37;8.40;99.90
23703;DHT22;12030;50.376;8.762;2022-11-30T07:02:12;8.40;99.90
23703;DHT22;12030;50.376;8.762;2022-11-30T07:04:38;8.40;99.90
23703;DHT22;12030;50.376;8.762;2022-11-30T07:07:04;8.40;99.90
23703;DHT22;12030;50.376;8.762;2022-11-30T07:09:29;8.40;99.90
23703;DHT22;12030;50.376;8.762;2022-11-30T07:11:56;8.40;99.90
23703;DHT22;12030;50.376;8.762;2022-11-30T07:14:22;8.40;99.90
23703;DHT22;12030;50.376;8.762;2022-11-30T07:16:47;8.40;99.90
23703;DHT22;12030;50.376;8.762;2022-11-30T07:19:13;8.40;99.90
23703;DHT22;12030;50.376;8.762;2022-11-30T07:21:38;8.40;99.90
23703;DHT22;12030;50.376;8.762;2022-11-30T07:24:04;8.40;99.90
23703;DHT22;12030;50.376;8.762;2022-11-30T07:26:48;8.40;99.90
23703;DHT22;12030;50.376;8.762;2022-11-30T07:29:14;8.40;99.90
23703;DHT22;12030;50.376;8.762;2022-11-30T07:31:39;8.40;99.90
23703;DHT22;12030;50.376;8.762;2022-11-30T07:34:06;8.40;99.90
23703;DHT22;12030;50.376;8.762;2022-11-30T07:36:34;8.40;99.90
23703;DHT22;12030;50.376;8.762;2022-11-30T07:39:00;8.40;99.90
23703;DHT22;12030;50.376;8.762;2022-11-30T07:41:26;8.40;99.90
23703;DHT22;12030;50.376;8.762;2022-11-30T07:43:51;8.40;99.90
23703;DHT22;12030;50.376;8.762;2022-11-30T07:46:17;8.50;99.90
23703;DHT22;12030;50.376;8.762;2022-11-30T07:48:44;8.50;99.90
23703;DHT22;12030;50.376;8.762;2022-11-30T07:51:12;8.60;99.90
23703;DHT22;12030;50.376;8.762;2022-11-30T07:53:38;8.60;99.90
23703;DHT22;12030;50.376;8.762;2022-11-30T07:56:06;8.50;99.90
23703;DHT22;12030;50.376;8.762;2022-11-30T07:58:32;8.50;99.90
23703;DHT22;12030;50.376;8.762;2022-11-30T08:01:02;8.60;99.90
23703;DHT22;12030;50.376;8.762;2022-11-30T08:03:29;8.60;99.90
23703;DHT22;12030;50.376;8.762;2022-11-30T08:05:59;8.50;99.90
23703;DHT22;12030;50.376;8.762;2022-11-30T08:08:28;8.60;99.90
23703;DHT22;12030;50.376;8.762;2022-11-30T08:10:58;8.60;99.90
23703;DHT22;12030;50.376;8.762;2022-11-30T08:13:24;8.60;99.90
23703;DHT22;12030;50.376;8.762;2022-11-30T08:15:50;8.60;99.90
23703;DHT22;12030;50.376;8.762;2022-11-30T08:18:15;8.70;99.90
23703;DHT22;12030;50.376;8.762;2022-11-30T08:20:41;8.60;99.90
23703;DHT22;12030;50.376;8.762;2022-11-30T08:23:06;8.70;99.90
23703;DHT22;12030;50.376;8.762;2022-11-30T08:25:33;8.80;99.90
23703;DHT22;12030;50.376;8.762;2022-11-30T08:27:59;8.70;99.90
23703;DHT22;12030;50.376;8.762;2022-11-30T08:30:24;8.80;99.90
23703;DHT22;12030;50.376;8.762;2022-11-30T08:32:50;8.70;99.90
23703;DHT22;12030;50.376;8.762;2022-11-30T08:35:16;8.80;99.90
23703;DHT22;12030;50.376;8.762;2022-11-30T08:37:42;8.80;99.90
23703;DHT22;12030;50.376;8.762;2022-11-30T08:40:07;8.70;99.90
23703;DHT22;12030;50.376;8.762;2022-11-30T08:42:33;8.80;99.90
23703;DHT22;12030;50.376;8.762;2022-11-30T08:44:59;8.70;99.90
23703;DHT22;12030;50.376;8.762;2022-11-30T08:47:24;8.80;99.90
23703;DHT22;12030;50.376;8.762;2022-11-30T08:49:50;8.80;99.90
23703;DHT22;12030;50.376;8.762;2022-11-30T08:52:15;8.90;99.90
23703;DHT22;12030;50.376;8.762;2022-11-30T08:54:45;9.00;99.90
23703;DHT22;12030;50.376;8.762;2022-11-30T08:57:11;8.90;99.90
23703;DHT22;12030;50.376;8.762;2022-11-30T08:59:36;8.90;99.90
23703;DHT22;12030;50.376;8.762;2022-11-30T09:02:02;9.00;99.90
23703;DHT22;12030;50.376;8.762;2022-11-30T09:04:28;8.90;99.90
23703;DHT22;12030;50.376;8.762;2022-11-30T09:06:53;8.90;99.90
23703;DHT22;12030;50.376;8.762;2022-11-30T09:09:23;9.00;99.90
23703;DHT22;12030;50.376;8.762;2022-11-30T09:11:49;9.00;99.90
23703;DHT22;12030;50.376;8.762;2022-11-30T09:14:15;9.10;99.90
23703;DHT22;12030;50.376;8.762;2022-11-30T09:16:40;9.00;99.90
23703;DHT22;12030;50.376;8.762;2022-11-30T09:19:07;9.00;99.90
23703;DHT22;12030;50.376;8.762;2022-11-30T09:21:33;9.00;99.90
23703;DHT22;12030;50.376;8.762;2022-11-30T09:23:59;9.00;99.90
23703;DHT22;12030;50.376;8.762;2022-11-30T09:26:24;9.10;99.90
23703;DHT22;12030;50.376;8.762;2022-11-30T09:28:52;9.10;99.90
23703;DHT22;12030;50.376;8.762;2022-11-30T09:31:20;9.10;99.90
23703;DHT22;12030;50.376;8.762;2022-11-30T09:33:46;9.10;99.90
23703;DHT22;12030;50.376;8.762;2022-11-30T09:36:14;9.10;99.90
23703;DHT22;12030;50.376;8.762;2022-11-30T09:38:40;9.10;99.90
23703;DHT22;12030;50.376;8.762;2022-11-30T09:49:43;9.20;99.90
23703;DHT22;12030;50.376;8.762;2022-11-30T09:52:33;9.30;99.90
23703;DHT22;12030;50.376;8.762;2022-11-30T09:55:01;9.20;99.90
23703;DHT22;12030;50.376;8.762;2022-11-30T10:00:03;9.20;99.90
23703;DHT22;12030;50.376;8.762;2022-11-30T10:02:32;9.20;99.90
23703;DHT22;12030;50.376;8.762;2022-11-30T10:04:58;9.30;99.90
23703;DHT22;12030;50.376;8.762;2022-11-30T10:19:27;9.40;99.90
23703;DHT22;12030;50.376;8.762;2022-11-30T10:22:10;9.40;99.90
23703;DHT22;12030;50.376;8.762;2022-11-30T10:30:20;9.30;99.90
23703;DHT22;12030;50.376;8.762;2022-11-30T10:32:54;9.40;99.90
23703;DHT22;12030;50.376;8.762;2022-11-30T10:38:08;9.40;99.90
23703;DHT22;12030;50.376;8.762;2022-11-30T10:40:36;9.40;99.90
23703;DHT22;12030;50.376;8.762;2022-11-30T10:43:29;9.30;99.90
23703;DHT22;12030;50.376;8.762;2022-11-30T10:45:57;9.40;99.90
23703;DHT22;12030;50.376;8.762;2022-11-30T10:48:27;9.40;99.90
23703;DHT22;12030;50.376;8.762;2022-11-30T10:50:56;9.40;99.90
23703;DHT22;12030;50.376;8.762;2022-11-30T10:53:23;9.50;99.90
23703;DHT22;12030;50.376;8.762;2022-11-30T10:58:49;9.60;99.90
23703;DHT22;12030;50.376;8.762;2022-11-30T11:01:33;9.60;99.90
23703;DHT22;12030;50.376;8.762;2022-11-30T11:06:46;9.70;99.90
23703;DHT22;12030;50.376;8.762;2022-11-30T11:09:40;9.70;99.90
23703;DHT22;12030;50.376;8.762;2022-11-30T11:12:28;9.80;99.90
23703;DHT22;12030;50.376;8.762;2022-11-30T11:15:19;9.70;99.90
23703;DHT22;12030;50.376;8.762;2022-11-30T11:17:45;9.70;99.90
23703;DHT22;12030;50.376;8.762;2022-11-30T11:20:33;9.70;99.90
23703;DHT22;12030;50.376;8.762;2022-11-30T11:22:59;9.70;99.90
23703;DHT22;12030;50.376;8.762;2022-11-30T11:25:34;9.80;99.90
23703;DHT22;12030;50.376;8.762;2022-11-30T11:28:14;9.90;99.90
23703;DHT22;12030;50.376;8.762;2022-11-30T11:30:43;10.00;99.90
23703;DHT22;12030;50.376;8.762;2022-11-30T11:35:45;10.00;99.90
23703;DHT22;12030;50.376;8.762;2022-11-30T11:43:23;10.10;99.90
23703;DHT22;12030;50.376;8.762;2022-11-30T11:45:52;10.10;99.90
23703;DHT22;12030;50.376;8.762;2022-11-30T11:51:06;10.10;99.90
23703;DHT22;12030;50.376;8.762;2022-11-30T11:56:17;10.00;99.90
23703;DHT22;12030;50.376;8.762;2022-11-30T12:01:58;10.00;99.90
23703;DHT22;12030;50.376;8.762;2022-11-30T12:07:57;10.00;99.90
23703;DHT22;12030;50.376;8.762;2022-11-30T12:10:24;10.00;99.90
23703;DHT22;12030;50.376;8.762;2022-11-30T12:12:52;9.90;99.90
23703;DHT22;12030;50.376;8.762;2022-11-30T12:15:17;10.00;99.90
23703;DHT22;12030;50.376;8.762;2022-11-30T12:20:41;10.00;99.90
23703;DHT22;12030;50.376;8.762;2022-11-30T12:31:29;9.90;99.90
23703;DHT22;12030;50.376;8.762;2022-11-30T12:39:34;9.90;99.90
23703;DHT22;12030;50.376;8.762;2022-11-30T12:42:17;9.90;99.90
23703;DHT22;12030;50.376;8.762;2022-11-30T12:50:04;10.00;99.90
23703;DHT22;12030;50.376;8.762;2022-11-30T13:01:01;10.00;99.90
23703;DHT22;12030;50.376;8.762;2022-11-30T13:03:55;10.00;99.90
23703;DHT22;12030;50.376;8.762;2022-11-30T13:06:36;10.00;99.90
23703;DHT22;12030;50.376;8.762;2022-11-30T13:09:09;10.00;99.90
23703;DHT22;12030;50.376;8.762;2022-11-30T13:11:45;10.10;99.90
23703;DHT22;12030;50.376;8.762;2022-11-30T13:14:14;10.00;99.90
23703;DHT22;12030;50.376;8.762;2022-11-30T13:16:42;9.90;99.90
23703;DHT22;12030;50.376;8.762;2022-11-30T13:21:58;9.80;99.90
23703;DHT22;12030;50.376;8.762;2022-11-30T13:24:44;9.80;99.90
23703;DHT22;12030;50.376;8.762;2022-11-30T13:27:20;9.80;99.90
23703;DHT22;12030;50.376;8.762;2022-11-30T13:32:22;9.80;99.90
23703;DHT22;12030;50.376;8.762;2022-11-30T13:34:47;9.90;99.90
23703;DHT22;12030;50.376;8.762;2022-11-30T13:39:49;9.90;99.90
23703;DHT22;12030;50.376;8.762;2022-11-30T13:44:53;9.90;99.90
23703;DHT22;12030;50.376;8.762;2022-11-30T13:47:32;9.90;99.90
23703;DHT22;12030;50.376;8.762;2022-11-30T13:50:23;9.90;99.90
23703;DHT22;12030;50.376;8.762;2022-11-30T13:58:10;9.70;99.90
23703;DHT22;12030;50.376;8.762;2022-11-30T14:05:46;9.70;99.90
23703;DHT22;12030;50.376;8.762;2022-11-30T14:10:49;9.60;99.90
23703;DHT22;12030;50.376;8.762;2022-11-30T14:23:51;9.50;99.90
23703;DHT22;12030;50.376;8.762;2022-11-30T14:26:33;9.60;99.90
23703;DHT22;12030;50.376;8.762;2022-11-30T14:29:30;9.60;99.90
23703;DHT22;12030;50.376;8.762;2022-11-30T14:34:51;9.50;99.90
23703;DHT22;12030;50.376;8.762;2022-11-30T14:37:29;9.60;99.90
23703;DHT22;12030;50.376;8.762;2022-11-30T14:40:00;9.60;99.90
23703;DHT22;12030;50.376;8.762;2022-11-30T14:42:29;9.60;99.90
23703;DHT22;12030;50.376;8.762;2022-11-30T14:44:55;9.50;99.90
23703;DHT22;12030;50.376;8.762;2022-11-30T14:47:24;9.50;99.90
23703;DHT22;12030;50.376;8.762;2022-11-30T14:49:52;9.50;99.90
23703;DHT22;12030;50.376;8.762;2022-11-30T14:57:37;9.40;99.90
23703;DHT22;12030;50.376;8.762;2022-11-30T15:00:13;9.50;99.90
23703;DHT22;12030;50.376;8.762;2022-11-30T15:02:42;9.50;99.90
23703;DHT22;12030;50.376;8.762;2022-11-30T15:05:23;9.40;99.90
23703;DHT22;12030;50.376;8.762;2022-11-30T15:07:51;9.30;99.90
23703;DHT22;12030;50.376;8.762;2022-11-30T15:10:29;9.30;99.90
23703;DHT22;12030;50.376;8.762;2022-11-30T15:12:57;9.30;99.90
23703;DHT22;12030;50.376;8.762;2022-11-30T15:15:25;9.30;99.90
23703;DHT22;12030;50.376;8.762;2022-11-30T15:20:46;9.20;99.90
23703;DHT22;12030;50.376;8.762;2022-11-30T15:23:14;9.20;99.90
23703;DHT22;12030;50.376;8.762;2022-11-30T15:25:51;9.20;99.90
23703;DHT22;12030;50.376;8.762;2022-11-30T15:28:23;9.20;99.90
23703;DHT22;12030;50.376;8.762;2022-11-30T15:30:57;9.10;99.90
23703;DHT22;12030;50.376;8.762;2022-11-30T15:33:30;9.10;99.90
23703;DHT22;12030;50.376;8.762;2022-11-30T15:35:56;9.00;99.90
23703;DHT22;12030;50.376;8.762;2022-11-30T15:38:26;9.00;99.90
23703;DHT22;12030;50.376;8.762;2022-11-30T15:41:03;9.00;99.90
23703;DHT22;12030;50.376;8.762;2022-11-30T15:43:34;9.10;99.90
23703;DHT22;12030;50.376;8.762;2022-11-30T15:46:04;9.10;99.90
23703;DHT22;12030;50.376;8.762;2022-11-30T15:48:39;9.10;99.90
23703;DHT22;12030;50.376;8.762;2022-11-30T15:51:05;9.10;99.90
23703;DHT22;12030;50.376;8.762;2022-11-30T15:53:34;9.10;99.90
23703;DHT22;12030;50.376;8.762;2022-11-30T15:56:03;9.10;99.90
23703;DHT22;12030;50.376;8.762;2022-11-30T15:58:33;9.00;99.90
23703;DHT22;12030;50.376;8.762;2022-11-30T16:01:09;9.10;99.90
23703;DHT22;12030;50.376;8.762;2022-11-30T16:06:45;9.10;99.90
23703;DHT22;12030;50.376;8.762;2022-11-30T16:09:24;9.00;99.90
23703;DHT22;12030;50.376;8.762;2022-11-30T16:11:57;9.00;99.90
23703;DHT22;12030;50.376;8.762;2022-11-30T16:14:23;9.00;99.90
23703;DHT22;12030;50.376;8.762;2022-11-30T16:16:49;9.00;99.90
23703;DHT22;12030;50.376;8.762;2022-11-30T16:19:17;9.00;99.90
23703;DHT22;12030;50.376;8.762;2022-11-30T16:21:42;8.90;99.90
23703;DHT22;12030;50.376;8.762;2022-11-30T16:24:12;8.80;99.90
23703;DHT22;12030;50.376;8.762;2022-11-30T16:26:38;8.90;99.90
23703;DHT22;12030;50.376;8.762;2022-11-30T16:29:03;8.80;99.90
23703;DHT22;12030;50.376;8.762;2022-11-30T16:31:29;8.80;99.90
23703;DHT22;12030;50.376;8.762;2022-11-30T16:33:54;8.70;99.90
23703;DHT22;12030;50.376;8.762;2022-11-30T16:36:20;8.80;99.90
23703;DHT22;12030;50.376;8.762;2022-11-30T16:38:47;8.70;99.90
23703;DHT22;12030;50.376;8.762;2022-11-30T16:41:25;8.70;99.90
23703;DHT22;12030;50.376;8.762;2022-11-30T16:43:52;8.60;99.90
23703;DHT22;12030;50.376;8.762;2022-11-30T16:46:26;8.60;99.90
23703;DHT22;12030;50.376;8.762;2022-11-30T16:48:52;8.60;99.90
23703;DHT22;12030;50.376;8.762;2022-11-30T16:51:27;8.60;99.90
23703;DHT22;12030;50.376;8.762;2022-11-30T16:53:53;8.50;99.90
23703;DHT22;12030;50.376;8.762;2022-11-30T16:56:19;8.50;99.90
23703;DHT22;12030;50.376;8.762;2022-11-30T16:58:45;8.50;99.90
23703;DHT22;12030;50.376;8.762;2022-11-30T17:01:21;8.50;99.90
23703;DHT22;12030;50.376;8.762;2022-11-30T17:03:50;8.50;99.90
23703;DHT22;12030;50.376;8.762;2022-11-30T17:06:18;8.40;99.90
23703;DHT22;12030;50.376;8.762;2022-11-30T17:08:45;8.50;99.90
23703;DHT22;12030;50.376;8.762;2022-11-30T17:11:24;8.50;99.90
23703;DHT22;12030;50.376;8.762;2022-11-30T17:13:52;8.50;99.90
23703;DHT22;12030;50.376;8.762;2022-11-30T17:16:17;8.50;99.90
23703;DHT22;12030;50.376;8.762;2022-11-30T17:18:43;8.50;99.90
23703;DHT22;12030;50.376;8.762;2022-11-30T17:21:12;8.50;99.90
23703;DHT22;12030;50.376;8.762;2022-11-30T17:23:38;8.60;99.90
23703;DHT22;12030;50.376;8.762;2022-11-30T17:26:04;8.50;99.90
23703;DHT22;12030;50.376;8.762;2022-11-30T17:28:29;8.60;99.90
23703;DHT22;12030;50.376;8.762;2022-11-30T17:30:55;8.60;99.90
23703;DHT22;12030;50.376;8.762;2022-11-30T17:33:20;8.50;99.90
23703;DHT22;12030;50.376;8.762;2022-11-30T17:35:46;8.50;99.90
23703;DHT22;12030;50.376;8.762;2022-11-30T17:38:11;8.60;99.90
23703;DHT22;12030;50.376;8.762;2022-11-30T17:40:39;8.60;99.90
23703;DHT22;12030;50.376;8.762;2022-11-30T17:43:06;8.50;99.90
23703;DHT22;12030;50.376;8.762;2022-11-30T17:45:32;8.50;99.90
23703;DHT22;12030;50.376;8.762;2022-11-30T17:47:57;8.50;99.90
23703;DHT22;12030;50.376;8.762;2022-11-30T17:50:24;8.50;99.90
23703;DHT22;12030;50.376;8.762;2022-11-30T17:52:49;8.40;99.90
23703;DHT22;12030;50.376;8.762;2022-11-30T17:55:15;8.40;99.90
23703;DHT22;12030;50.376;8.762;2022-11-30T17:57:40;8.60;99.90
23703;DHT22;12030;50.376;8.762;2022-11-30T18:00:07;8.60;99.90
23703;DHT22;12030;50.376;8.762;2022-11-30T18:02:32;8.60;99.90
23703;DHT22;12030;50.376;8.762;2022-11-30T18:04:58;8.60;99.90
23703;DHT22;12030;50.376;8.762;2022-11-30T18:07:23;8.60;99.90
23703;DHT22;12030;50.376;8.762;2022-11-30T18:09:49;8.60;99.90
23703;DHT22;12030;50.376;8.762;2022-11-30T18:12:15;8.50;99.90
23703;DHT22;12030;50.376;8.762;2022-11-30T18:14:40;8.50;99.90
23703;DHT22;12030;50.376;8.762;2022-11-30T18:17:06;8.50;99.90
23703;DHT22;12030;50.376;8.762;2022-11-30T18:19:31;8.50;99.90